Vieux-Leuze - Mini Challenge

Le Mini Challenge à Vieux-Leuze (6.80 km)

Classement complet

Le classement original se trouve sur : http://www.challengedesjeunes.be
MINI CHALLENGE
MINI CHALLENGE À VIEUX-LEUZE
DISTANCE 6.80 km
samedi 17 septembre 2016
 
Place dos NOM Equipe Catégorie Pl/cat temps temps/km Vitesse
1 315 MOULIN VINCENT   H+20 1 00:23:15 03:25 17.55
2 2168 CLAM SIMON CIT H+20 2 00:25:05 03:41 16.27
3 156 DERYCKÈRE NICOLAS MONT - DE - L'ENCLUS H+20 3 00:25:33 03:45 15.97
4 312 LABEAU STEPHANE ATH H40+ 1 00:25:35 03:46 15.95
5 538 VANAERDE FREDERIC PIPAIX H+20 4 00:26:00 03:49 15.69
6 412 DETEMMERMAN TOMMY SERIMDACE H+20 5 00:26:15 03:52 15.54
7 370 VIGNOBLE THOMAS ATH ATHLETISME H12-16 1 00:26:34 03:54 15.36
8 108 WISEUR GILLES ACB H17-20 1 00:26:47 03:56 15.23
9 125 DUJARDIN VIRGINIE   F35+ 1 00:27:30 04:03 14.84
10 2183 PEREMANS DYLAN APL H17-20 2 00:27:40 04:04 14.75
11 1168 DE SAINT MARTIN ALAIN FARMERS CLUB H+20 6 00:27:54 04:06 14.62
12 105 PETIT MAXIME COACH RUNNING H12-16 2 00:28:03 04:08 14.55
13 107 LIBBRECHT NICOLAS ACB H+20 7 00:28:06 04:08 14.52
14 377 ROBETTE DAMIEN   H17-20 3 00:28:15 04:09 14.44
15 400 SAUSSEZ JEROME JC CHEMINOTS H+20 8 00:28:23 04:10 14.37
16 875 LEFEVRE JEAN-JACQUES ALC VIEUX CONDÉ H40+ 2 00:28:26 04:11 14.35
17 2187 SIMON KÉVIN   H+20 9 00:28:29 04:11 14.32
18 281 SCOHIEZ BERNARD PIPAIX H40+ 3 00:28:32 04:12 14.30
19 214 LAURENT ALEX   H40+ 4 00:28:42 04:13 14.22
20 158 BOULANGER JULIEN ALC VIEUX CONDÉ H+20 10 00:28:45 04:14 14.19
21 474 VERMOESEN MAXIME RUNNING FRIENDS H12-16 3 00:29:00 04:16 14.07
22 506 DELBECQ DAVID ECLATÉS PÉRUWELZ H40+ 5 00:29:06 04:17 14.02
23 92 LEQUEUX FABRICE RUNNING FRIENDS H40+ 6 00:29:18 04:19 13.92
24 1072 VANDECNOCKE THIBAUT   H+20 11 00:29:35 04:21 13.79
25 409 LIGNIER MAXENCE SCRIMPACT H+20 12 00:29:50 04:23 13.68
26 16 LECLERCQ STEVE C SI FUN H+20 13 00:30:11 04:26 13.52
27 109 BILLIET FABRICE COACH RUNNING H40+ 7 00:30:16 04:27 13.48
28 824 BRISMEE BAPTISTE   H12-16 4 00:30:22 04:28 13.44
29 877 HENON OVIDE ALC VIEUX CONDÉ H+20 14 00:30:24 04:28 13.42
30 2158 VERSCHELDE SEBASTIEN   H+20 15 00:30:28 04:29 13.39
31 249 BONROIT FREDERIC TIME TO RUN H+20 16 00:30:30 04:29 13.38
32 2189 DONDAINE JULIEN   H12-16 5 00:30:31 04:29 13.37
33 475 VERMOESEN TIMMY RUNNIG FRIENDS H12-16 6 00:30:32 04:29 13.36
34 291 MUREZ MARJORIE ALC VIEUX CONDÉ F35+ 2 00:30:47 04:32 13.25
35 887 BONHOMME FREDDY ALC VIEUX CONDÉ H40+ 8 00:30:48 04:32 13.25
36 2184 HUBAUT JONAS   H12-16 7 00:31:01 04:34 13.15
37 314 DEMETS BERNARD ATH H40+ 9 00:31:03 04:34 13.14
38 1152 GARBIN ANTHONY   H+20 17 00:31:04 04:34 13.13
39 2169 DEJONGHE AURÉLIE CIT F+20 1 00:31:12 04:35 13.08
40 79 DIRICQ HÉLOÏSE   F12-16 1 00:31:13 04:35 13.07
41 1186 DEWAILLY MATHIAS   H+20 18 00:31:16 04:36 13.05
42 324 GAHITTE GABIN ECLATÉS PÉRUWELZ H12-16 8 00:31:27 04:38 12.97
43 472 VERMOESEN PATRICK RUNNING FRIENDS H40+ 10 00:31:32 04:38 12.94
44 12 FLAMME MARIE-JEANNE ALC VIEUX CONDÉ F+20 2 00:31:41 04:40 12.88
45 13 FLAMME KEVIN ALC VIEUX CONDÉ H+20 19 00:31:42 04:40 12.87
46 106 LEQUEUX DAMIEN ET ENGHIEN H12-16 9 00:31:57 04:42 12.77
47 679 VERHELST JEAN MICHEL   H+20 20 00:31:58 04:42 12.76
48 2180 SCHALLON ELIE   H12-16 10 00:32:04 04:43 12.72
49 2190 LEBAILLY LENNY   H+20 21 00:32:05 04:43 12.72
50 2200 TRUANT CORENTIN   H+20 22 00:32:06 04:43 12.71
51 114 D'HAEYER JOEL OXYGÈNE BONSECOURS H40+ 11 00:32:07 04:43 12.70
52 383 POZZA ZELIA RONDE DES SORCIÈRES F12-16 2 00:32:08 04:44 12.70
53 348 LEQUEUX ALINE ET ENGHIEN F12-16 3 00:32:12 04:44 12.67
54 384 POZZA PIERRE RONDE DES SORCIÈRES H40+ 12 00:32:13 04:44 12.66
55 1750 BERTRAND BRUNO TORTUES MESLINOISES H+20 23 00:32:14 04:44 12.66
56 2206 DE BIE JEROEN   H+20 24 00:32:16 04:45 12.64
57 365 RIVIERE SAMUEL ECLATÉS PÉRUWELZ H12-16 11 00:32:27 04:46 12.57
58 1911 DELMEE GUILLAUME   H+20 25 00:32:28 04:46 12.57
59 123 SADIN GWENAELLE   F35+ 3 00:32:30 04:47 12.55
60 2166 WESTOAGH AMORE SPHO H40+ 13 00:32:35 04:48 12.52
61 171 NYSSEN ALAIN BAC H40+ 14 00:32:51 04:50 12.42
62 25 LEROY PASCAL BECLERS JOGGING CL H40+ 15 00:32:56 04:51 12.39
63 239 MISONNE MARIE-CHRISTINE ACLE F35+ 4 00:32:59 04:51 12.37
64 2205 DEGAND SEBASTIEN BAUDOUR H+20 26 00:33:18 04:54 12.25
65 2175 VANDENNIEUWENBROUCK LOIC APL H12-16 12 00:33:36 04:56 12.14
66 208 FASTREZ CHRISTOPHE LEUZE H40+ 16 00:33:46 04:58 12.08
67 100 MEURET PHILIPPE ACB H+20 27 00:34:01 05:00 11.99
68 458 VAN COPPENOLLE GUILAUME   H+20 28 00:34:05 05:01 11.97
69 423 HUMETZ AURELIEN   H12-16 13 00:34:10 05:01 11.94
70 1017 VERDEBOUT JEAN-MICHEL   H40+ 17 00:34:12 05:02 11.93
71 122 QUIVY PASCAL RHO H40+ 18 00:34:21 05:03 11.88
72 2203 DEVAUX JEREMY RALL H+20 29 00:34:27 05:04 11.84
73 2208 VIVIER MICHAEL ENDURANCE TEAM CHIÈVR H40+ 19 00:34:39 05:06 11.77
74 267 PICRON ADRIEN   H17-20 4 00:34:40 05:06 11.77
75 2182 LIGNIER HUGO APL H17-20 5 00:34:54 05:08 11.69
76 163 DUWELZ MICHAEL LEUZE ATHLETIC CLUB H+20 30 00:34:59 05:09 11.66
77 1163 DE BLOMME DAMIEN   H40+ 20 00:35:03 05:09 11.64
78 3 SPILEERS MARIE-HELENE   F35+ 5 00:35:09 05:10 11.61
79 2202 WATTIEZ MURIELLE PIPAIX F35+ 6 00:35:10 05:10 11.60
80 2195 CAPART LAETITIA   F35+ 7 00:35:21 05:12 11.54
81 224 MAHIEU EDDY PIPAIX H40+ 21 00:35:24 05:12 11.53
82 78 DIRICQ NOLWENN   F12-16 4 00:35:31 05:13 11.49
83 1217 LAMY PASCAL   H40+ 22 00:35:38 05:14 11.45
84 2181 DESABLENS SEAN APL H12-16 14 00:35:48 05:16 11.40
85 2017 FOURNIER JONATHAN   H+20 31 00:35:53 05:17 11.37
86 894 MATON WENDY   F12-16 5 00:35:54 05:17 11.36
87 219 FERVAILLE FABIENNE BECLERS F35+ 8 00:35:57 05:17 11.35
88 481 DIRICQ PASCAL   H40+ 23 00:35:58 05:17 11.34
89 2188 MAGNIER ARNAUD   H+20 32 00:36:29 05:22 11.18
90 372 EVRARD FABIENNE   F35+ 9 00:36:30 05:22 11.18
91 2147 BRISMÉE MICHEL PIPAIX H40+ 24 00:36:34 05:23 11.16
92 136 MAZUREL SEBASTIEN   H+20 33 00:36:35 05:23 11.15
93 975 COORNAERT AIDEN ASSA RENAIX H12-16 15 00:36:51 05:25 11.07
94 132 CABY BERNARD COACH RUNNING H40+ 25 00:36:55 05:26 11.05
95 1124 VANDENHENDE SIMON   H+20 34 00:36:58 05:26 11.04
96 68 DEMETS HERVE JSMC H+20 35 00:37:04 05:27 11.01
97 2201 SAROT LOGAN   H12-16 16 00:37:12 05:28 10.97
98 2084 GERARD SANDY ECLATÉS PÉRUWELZ F35+ 10 00:37:14 05:29 10.96
99 1181 PILETTE FABRICE   H40+ 26 00:37:17 05:29 10.94
100 571 LOQUET ALINE ETC F35+ 11 00:37:19 05:29 10.93
101 572 BERGERET SEBASTIEN ETC H+20 36 00:37:21 05:30 10.92
102 2157 ROBETTE DAVID   H40+ 27 00:37:22 05:30 10.92
103 517 PETTIAUX GUY ST SAUVEUR H40+ 28 00:37:24 05:30 10.91
104 810 CORNILLIE HERVE   H+20 37 00:37:25 05:30 10.90
105 1136 VELGHE HELOÏSE   F+20 3 00:37:31 05:31 10.88
106 62 LIBBRECHT MARIE AC BELOEIL F+20 4 00:37:32 05:31 10.87
107 533 DELCOIGNE GEORGES   H40+ 29 00:37:36 05:32 10.85
108 253 RENARD PIERRE   H40+ 30 00:37:40 05:32 10.83
109 2204 PONCHAU CLAIRE PIPAIX F35+ 12 00:37:51 05:34 10.78
110 118 VANDENABEELE ISABELLE RUNNING FRIEND F35+ 13 00:37:52 05:34 10.77
111 1188 DELHAYE AURELIE   F+20 5 00:37:54 05:34 10.77
112 2199 MICHEL JACQUES   H40+ 31 00:38:04 05:36 10.72
113 2135 OPSOMER CAROLINE PIPAIX F35+ 14 00:38:05 05:36 10.71
114 2160 BERTOLLIN TONY   H+20 38 00:38:15 05:37 10.67
115 1289 CASTIAU OLIVIER   H+20 39 00:38:23 05:39 10.63
116 194 CAILLEAU ERIC   H40+ 32 00:38:24 05:39 10.63
117 436 CLERX ISABELLE SPHO F35+ 15 00:38:28 05:39 10.61
118 2191 CAPELLE SEBASTIEN   H+20 40 00:38:59 05:44 10.47
119 895 MATON FREDERIC   H40+ 33 00:39:14 05:46 10.40
120 138 FRIQUE MARIE-ANNE   F35+ 16 00:39:17 05:47 10.39
121 127 ANSELAIN ELIA OXYGÈNE BONSECOURS F12-16 6 00:39:39 05:50 10.29
122 2176 CARLIER ALOIS APL H12-16 17 00:39:40 05:50 10.29
123 26 BAUSIER PHILIPPE RUNNING FRIENDS H40+ 34 00:39:41 05:50 10.28
124 69 BONNAMI CHRISTINE RUNNING FRIENDS F35+ 17 00:39:42 05:50 10.28
125 2155 DELCAMPE EDEN JC BECLERS H12-16 18 00:39:55 05:52 10.22
126 2153 DELBECY BRIAH   H12-16 19 00:40:00 05:53 10.20
127 64 DELCAMPE EDDY JC BECLERS H40+ 35 00:40:06 05:54 10.17
128 28 CHAMART CAROLINE BECLERS JOGGING CL F35+ 18 00:40:30 05:57 10.07
129 65 CARPREAU VIRGINIE JC BECLERS F35+ 19 00:40:31 05:58 10.07
130 2172 VANHAMME XAVIER   H12-16 20 00:40:32 05:58 10.07
131 2156 DUBOIS OLIVIER   H40+ 36 00:40:59 06:02 9.96
132 2192 BONKOWSKI TOM   H12-16 21 00:41:00 06:02 9.95
133 142 DUQUENNOY LINDY OXYGÈNE BONSECOURS F+20 6 00:41:09 06:03 9.91
134 1058 PLATIAU ISABELLE   F35+ 20 00:41:16 06:04 9.89
135 785 SAFY ANGELE RUSTA F35+ 21 00:41:21 06:05 9.87
136 2138 WILLOCQ AUDREY   F+20 7 00:41:22 06:05 9.86
137 2209 DUROISIN TRACEY   F+20 8 00:41:42 06:08 9.78
138 27 VANDEVELDE STÉPHANIE RUNNING FRIENDS F35+ 22 00:41:47 06:09 9.76
139 254 FRIQUE BRIGITTE   F35+ 23 00:42:14 06:13 9.66
140 919 GREMEAUX SOPHIE   F+20 9 00:42:18 06:13 9.65
141 2178 LIBRE BRANDON   H12-16 22 00:42:28 06:15 9.61
142 2185 JANSSENS LIDIA   F+20 10 00:42:35 06:16 9.58
143 360 MICLOTTE MURIELLE   F35+ 24 00:42:42 06:17 9.56
144 2085 ROBETTE MATHIEU   H12-16 23 00:42:47 06:18 9.54
145 2196 DIEU ANTHIME   H17-20 6 00:43:04 06:20 9.47
146 2036 ESQUENET ARNAUD   H+20 41 00:43:06 06:20 9.47
147 1411 POZZA RACHEL RONDES DES SORCIERES F12-16 7 00:43:18 06:22 9.42
148 484 BILLIET JOHLINA COAACH RUNNING F17-20 1 00:43:28 06:24 9.39
149 525 WOUTERS CAROLINE   F+20 11 00:43:44 06:26 9.33
150 833 DE CUBBER NICOLAS   H+20 42 00:44:21 06:31 9.20
151 225 DE NEVE CHANTAL   F35+ 25 00:44:28 06:32 9.18
152 2186 LÉCRIVAIN CAROLINE   F35+ 26 00:44:32 06:33 9.16
153 2194 LEROY LAURENCE   F35+ 27 00:44:35 06:33 9.15
154 149 HANNART LILY   F12-16 8 00:44:38 06:34 9.14
155 2152 ROUSSEAU THOMAS   H12-16 24 00:44:41 06:34 9.13
156 2170 CUIGUEZ PHILIPPE   H40+ 37 00:45:03 06:37 9.06
157 2149 DECOCK FANNY   F12-16 9 00:45:20 06:40 9.00
158 2148 CHONY EMELINE   F12-16 10 00:45:21 06:40 9.00
159 442 KIRITCHOUK HELENE HAC F35+ 28 00:45:30 06:41 8.97
160 2154 RITHOVATO PASCALINE   F35+ 29 00:45:31 06:42 8.96
161 1730 SAFFRE ALISSON   F+20 12 00:45:52 06:45 8.90
162 226 FEYS PAULINE (1) BRIFFOEIL EN FÊTE F17-20 2 00:46:11 06:48 8.83
163 913 LAURENT DELPHINE   F17-20 3 00:46:15 06:48 8.82
164 471 HILESIS TAINA OSGA F12-16 11 00:46:18 06:49 8.81
165 2193 LENOIR GERARD TORTUES MESLINOISES H40+ 38 00:46:30 06:50 8.77
166 2179 SCHROEDERS JEREMY   H12-16 25 00:46:46 06:53 8.72
167 232 HOCQ GAUTIER BRIFFOEIL EN FÊTE H12-16 26 00:47:10 06:56 8.65
168 2096 LINTHAUD JHOAKIM   H12-16 27 00:47:11 06:56 8.65
169 1262 DEVOLDERE CHARLOTTE   F35+ 30 00:47:12 06:56 8.64
170 1154 DELACHAPELLE ELODIE   H+20 43 00:47:52 07:02 8.52
171 1180 MONTOINE FREDERIQUE SPORT EVASION F35+ 31 00:48:06 07:04 8.48
172 1260 BOSQUILLON DEBORA   F35+ 32 00:48:13 07:05 8.46
173 2150 WILLEMS EDOUARD   H12-16 28 00:48:25 07:07 8.43
174 14 LEFEBVRE EMILE COACH RUNNING H40+ 39 00:49:26 07:16 8.25
175 2207 GHYSELINGS LAURIE   F+20 13 00:49:35 07:17 8.23
176 2197 CERAMI LYDIA   F+20 14 00:50:02 07:21 8.15
177 2198 WARTHOLD SEBASTIEN   H+20 44 00:50:03 07:22 8.15
178 424 FONTAINE LOUISE-MARIE   F35+ 33 00:51:01 07:30 8.00
179 256 LEGROS VINCIANNE LES AMIS DU VÉLO MONT-D F35+ 34 00:51:19 07:33 7.95
180 1907 CROWIN MERCECDES   F35+ 35 00:51:28 07:34 7.93
181 111 ZITOLO MARGOT OSGA F12-16 12 00:51:34 07:35 7.91
182 2174 MAILLART MORGANE APL F12-16 13 00:51:42 07:36 7.89
183 2165 DEMORY OLIVIA SAINT-CHARLES F12-16 14 00:51:51 07:38 7.87
184 2164 STOWBUR IRINA SAINT CHARLES F12-16 15 00:51:52 07:38 7.87
185 2151 DELCOURT MARIE   F12-16 16 00:51:53 07:38 7.86
186 2163 BRION ZOÉ SAINT-CHARLES PÉRUWELZ F12-16 17 00:51:54 07:38 7.86
187 2159 FEIHLE GRATIENNE B-BÊTE DE COURSE H40+ 40 00:52:18 07:41 7.80
188 521 TOUBEAU DOMINIQUE SPHO H40+ 41 00:52:36 07:44 7.76
189 2103 TOUBEAU VALENTINE   F12-16 18 00:52:55 07:47 7.71
190 2171 VANDENBORRE MACIYS APL H12-16 29 00:58:05 08:33 7.02
191 2177 PEREMANS ETHAN   H12-16 30 00:58:06 08:33 7.02
192 2173 AMIEL MATHIAS   H12-16 31 00:58:07 08:33 7.02
193 2167 BOULAYAD OUMAÏMA   F12-16 19 01:01:55 09:06 6.59
194 2161 BRIDE LUDIVINE   F12-16 20 01:01:56 09:06 6.59
195 2162 TIDRICK LAURA   F12-16 21 01:04:38 09:30 6.31